DLH509 ENGM-EDDB
Flight info
| Callsign | DLH509 |
|---|---|
| Flight time | N/A |
| Altitude | 37000 |
| Route | OKSAT L996 KELIN DCT SALLO DCT RODEP T280 KETAP KETAP1R |
| Aircraft | A321/M-SDE3FGHIRWY/LB1 |
Departure
| Time | 2026-05-06 18:15 |
|---|---|
| Airport | Oslo-Gardermoen International Airport (ENGM) |
Arrival
| Time | N/A |
|---|---|
| Airport | Berlin Brandenburg Airport (EDDB) |
| Time | Latitude | Longitude | Altitude | Speed | Heading |
|---|---|---|---|---|---|
| 2026-05-06 17:36 | 60.19388 | 11.08905 | 682 ft | 0 kts | 196° |
| 2026-05-06 17:56 | 60.19404 | 11.08914 | 683 ft | 4 kts | 196° |
| 2026-05-06 17:56 | 60.19429 | 11.08929 | 682 ft | 4 kts | 196° |
| 2026-05-06 17:56 | 60.19455 | 11.08944 | 680 ft | 4 kts | 196° |
| 2026-05-06 17:56 | 60.19474 | 11.08955 | 680 ft | 0 kts | 196° |
| 2026-05-06 18:01 | 60.19473 | 11.08955 | 685 ft | 1 kts | 196° |
| 2026-05-06 18:01 | 60.19470 | 11.08936 | 685 ft | 2 kts | 265° |
| 2026-05-06 18:01 | 60.19491 | 11.08840 | 683 ft | 14 kts | 288° |
| 2026-05-06 18:01 | 60.19544 | 11.08580 | 677 ft | 22 kts | 327° |
| 2026-05-06 18:02 | 60.19687 | 11.08623 | 679 ft | 25 kts | 15° |
| 2026-05-06 18:02 | 60.19886 | 11.08737 | 679 ft | 32 kts | 15° |
| 2026-05-06 18:02 | 60.20094 | 11.08854 | 679 ft | 31 kts | 16° |
| 2026-05-06 18:02 | 60.20297 | 11.08973 | 682 ft | 30 kts | 16° |
| 2026-05-06 18:03 | 60.20496 | 11.09087 | 682 ft | 30 kts | 15° |
| 2026-05-06 18:03 | 60.20692 | 11.09201 | 683 ft | 29 kts | 16° |
| 2026-05-06 18:03 | 60.20883 | 11.09309 | 685 ft | 28 kts | 15° |
| 2026-05-06 18:03 | 60.21056 | 11.09410 | 686 ft | 24 kts | 16° |
| 2026-05-06 18:04 | 60.21195 | 11.09490 | 680 ft | 11 kts | 16° |
| 2026-05-06 18:04 | 60.21272 | 11.09534 | 687 ft | 12 kts | 16° |
| 2026-05-06 18:04 | 60.21360 | 11.09585 | 687 ft | 14 kts | 16° |
| 2026-05-06 18:04 | 60.21453 | 11.09638 | 687 ft | 11 kts | 10° |
| 2026-05-06 18:05 | 60.21527 | 11.09586 | 683 ft | 7 kts | 315° |
| 2026-05-06 18:05 | 60.21540 | 11.09543 | 684 ft | 0 kts | 295° |
| 2026-05-06 18:07 | 60.21546 | 11.09510 | 684 ft | 8 kts | 288° |
| 2026-05-06 18:07 | 60.21561 | 11.09398 | 684 ft | 0 kts | 285° |
| 2026-05-06 18:09 | 60.21563 | 11.09385 | 684 ft | 4 kts | 285° |
| 2026-05-06 18:09 | 60.21577 | 11.09271 | 684 ft | 10 kts | 282° |
| 2026-05-06 18:10 | 60.21553 | 11.09143 | 678 ft | 11 kts | 213° |
| 2026-05-06 18:10 | 60.21514 | 11.09114 | 684 ft | 0 kts | 196° |
| 2026-05-06 18:14 | 60.21512 | 11.09113 | 684 ft | 1 kts | 196° |
| 2026-05-06 18:14 | 60.21477 | 11.09092 | 684 ft | 23 kts | 196° |
| 2026-05-06 18:15 | 60.21054 | 11.08845 | 681 ft | 101 kts | 196° |
| 2026-05-06 18:15 | 60.20161 | 11.08328 | 677 ft | 163 kts | 195° |
| 2026-05-06 18:15 | 60.18982 | 11.07663 | 1145 ft | 174 kts | 196° |
| 2026-05-06 18:15 | 60.17822 | 11.07005 | 1946 ft | 174 kts | 200° |
| 2026-05-06 18:16 | 60.16694 | 11.05935 | 2357 ft | 190 kts | 222° |
| 2026-05-06 18:16 | 60.15891 | 11.03664 | 2648 ft | 213 kts | 249° |
| 2026-05-06 18:16 | 60.15299 | 11.00764 | 3019 ft | 237 kts | 248° |
| 2026-05-06 18:16 | 60.14634 | 10.97614 | 3563 ft | 250 kts | 248° |
| 2026-05-06 18:17 | 60.14277 | 10.94191 | 4321 ft | 255 kts | 273° |
| 2026-05-06 18:17 | 60.14559 | 10.90665 | 5154 ft | 257 kts | 280° |
| 2026-05-06 18:17 | 60.14898 | 10.87072 | 6022 ft | 260 kts | 280° |
| 2026-05-06 18:17 | 60.15320 | 10.83528 | 6831 ft | 264 kts | 293° |
| 2026-05-06 18:18 | 60.16448 | 10.80625 | 7581 ft | 270 kts | 320° |
| 2026-05-06 18:18 | 60.17899 | 10.78202 | 8358 ft | 272 kts | 309° |
| 2026-05-06 18:18 | 60.18780 | 10.74881 | 9107 ft | 272 kts | 282° |
| 2026-05-06 18:18 | 60.18793 | 10.71102 | 9897 ft | 273 kts | 254° |
| 2026-05-06 18:19 | 60.17955 | 10.67616 | 10252 ft | 290 kts | 230° |
| 2026-05-06 18:19 | 60.16329 | 10.64993 | 10403 ft | 314 kts | 207° |
| 2026-05-06 18:19 | 60.14157 | 10.63845 | 10578 ft | 336 kts | 185° |
| 2026-05-06 18:19 | 60.11800 | 10.64447 | 11085 ft | 350 kts | 164° |
| 2026-05-06 18:20 | 60.09645 | 10.66819 | 11689 ft | 361 kts | 144° |
| 2026-05-06 18:20 | 60.07706 | 10.70068 | 12283 ft | 367 kts | 143° |
| 2026-05-06 18:20 | 60.05753 | 10.73441 | 12845 ft | 374 kts | 143° |
| 2026-05-06 18:20 | 60.03783 | 10.76882 | 13445 ft | 379 kts | 143° |
| 2026-05-06 18:21 | 60.01779 | 10.80378 | 13976 ft | 384 kts | 144° |
| 2026-05-06 18:21 | 59.99748 | 10.83902 | 14498 ft | 389 kts | 144° |
| 2026-05-06 18:21 | 59.97692 | 10.87450 | 15048 ft | 393 kts | 144° |
| 2026-05-06 18:21 | 59.95612 | 10.91026 | 15627 ft | 396 kts | 144° |
| 2026-05-06 18:22 | 59.93515 | 10.94618 | 16205 ft | 399 kts | 144° |
| 2026-05-06 18:22 | 59.91399 | 10.98235 | 16774 ft | 402 kts | 145° |
| 2026-05-06 18:22 | 59.89265 | 11.01878 | 17335 ft | 405 kts | 145° |
| 2026-05-06 18:22 | 59.87116 | 11.05534 | 17879 ft | 408 kts | 146° |
| 2026-05-06 18:23 | 59.84950 | 11.09207 | 18362 ft | 411 kts | 146° |
| 2026-05-06 18:23 | 59.82765 | 11.12898 | 18808 ft | 414 kts | 146° |
| 2026-05-06 18:23 | 59.80533 | 11.16665 | 19267 ft | 417 kts | 146° |
| 2026-05-06 18:23 | 59.78314 | 11.20416 | 19721 ft | 420 kts | 146° |
| 2026-05-06 18:24 | 59.76081 | 11.24185 | 20149 ft | 423 kts | 146° |
| 2026-05-06 18:24 | 59.73827 | 11.27988 | 20579 ft | 427 kts | 146° |
| 2026-05-06 18:24 | 59.71555 | 11.31818 | 21035 ft | 430 kts | 146° |
| 2026-05-06 18:24 | 59.69264 | 11.35673 | 21489 ft | 433 kts | 146° |
| 2026-05-06 18:25 | 59.66959 | 11.39540 | 21893 ft | 436 kts | 146° |
| 2026-05-06 18:25 | 59.64629 | 11.43412 | 22355 ft | 437 kts | 148° |
| 2026-05-06 18:25 | 59.62071 | 11.46503 | 22778 ft | 426 kts | 163° |
| 2026-05-06 18:25 | 59.59273 | 11.48202 | 23200 ft | 419 kts | 174° |
| 2026-05-06 18:26 | 59.56419 | 11.49494 | 23616 ft | 421 kts | 174° |
| 2026-05-06 18:26 | 59.53550 | 11.50749 | 23997 ft | 423 kts | 175° |
| 2026-05-06 18:26 | 59.50679 | 11.51991 | 24377 ft | 424 kts | 175° |
| 2026-05-06 18:26 | 59.47797 | 11.53238 | 24764 ft | 425 kts | 175° |
| 2026-05-06 18:27 | 59.44899 | 11.54495 | 25149 ft | 427 kts | 175° |
| 2026-05-06 18:27 | 59.41992 | 11.55758 | 25550 ft | 428 kts | 175° |
| 2026-05-06 18:27 | 59.39077 | 11.57030 | 25924 ft | 430 kts | 175° |
| 2026-05-06 18:27 | 59.36158 | 11.58305 | 26260 ft | 431 kts | 175° |
| 2026-05-06 18:28 | 59.33223 | 11.59585 | 26624 ft | 432 kts | 175° |
| 2026-05-06 18:28 | 59.30281 | 11.60863 | 26984 ft | 434 kts | 175° |
| 2026-05-06 18:28 | 59.27325 | 11.62143 | 27321 ft | 435 kts | 175° |
| 2026-05-06 18:28 | 59.24366 | 11.63422 | 27607 ft | 436 kts | 175° |
| 2026-05-06 18:29 | 59.21401 | 11.64703 | 27945 ft | 437 kts | 175° |
| 2026-05-06 18:29 | 59.18434 | 11.65980 | 28239 ft | 437 kts | 175° |
| 2026-05-06 18:29 | 59.15460 | 11.67255 | 28580 ft | 437 kts | 175° |
| 2026-05-06 18:29 | 59.12499 | 11.68531 | 28991 ft | 435 kts | 175° |
| 2026-05-06 18:30 | 59.09553 | 11.69806 | 29386 ft | 433 kts | 175° |
| 2026-05-06 18:30 | 59.06612 | 11.71073 | 29740 ft | 432 kts | 175° |
| 2026-05-06 18:30 | 59.03685 | 11.72333 | 30103 ft | 431 kts | 175° |
| 2026-05-06 18:30 | 59.00759 | 11.73583 | 30424 ft | 430 kts | 175° |
| 2026-05-06 18:31 | 58.98262 | 11.74653 | 30682 ft | 430 kts | 173° |